sensor_id;sensor_type;location;lat;lon;timestamp;P1;durP1;ratioP1;P2;durP2;ratioP2
4450;SDS011;2238;50.180;9.230;2022-07-06T00:00:38;5.67;;;3.70;;
4450;SDS011;2238;50.180;9.230;2022-07-06T00:03:39;4.30;;;3.40;;
4450;SDS011;2238;50.180;9.230;2022-07-06T00:06:39;3.90;;;3.60;;
4450;SDS011;2238;50.180;9.230;2022-07-06T00:09:41;4.60;;;4.20;;
4450;SDS011;2238;50.180;9.230;2022-07-06T00:12:41;4.30;;;4.00;;
4450;SDS011;2238;50.180;9.230;2022-07-06T00:15:42;4.30;;;3.27;;
4450;SDS011;2238;50.180;9.230;2022-07-06T00:18:42;4.13;;;3.83;;
4450;SDS011;2238;50.180;9.230;2022-07-06T00:21:43;5.33;;;3.77;;
4450;SDS011;2238;50.180;9.230;2022-07-06T00:24:44;4.10;;;3.80;;
4450;SDS011;2238;50.180;9.230;2022-07-06T00:27:44;4.67;;;3.43;;
4450;SDS011;2238;50.180;9.230;2022-07-06T00:30:45;5.33;;;3.83;;
4450;SDS011;2238;50.180;9.230;2022-07-06T00:33:46;3.70;;;3.40;;
4450;SDS011;2238;50.180;9.230;2022-07-06T00:36:46;4.27;;;3.67;;
4450;SDS011;2238;50.180;9.230;2022-07-06T00:39:47;3.90;;;3.60;;
4450;SDS011;2238;50.180;9.230;2022-07-06T00:42:48;4.17;;;3.70;;
4450;SDS011;2238;50.180;9.230;2022-07-06T00:45:49;3.90;;;3.60;;
4450;SDS011;2238;50.180;9.230;2022-07-06T00:48:49;3.90;;;3.60;;
4450;SDS011;2238;50.180;9.230;2022-07-06T00:51:50;4.10;;;3.80;;
4450;SDS011;2238;50.180;9.230;2022-07-06T00:54:50;4.10;;;3.80;;
4450;SDS011;2238;50.180;9.230;2022-07-06T00:57:51;4.00;;;3.70;;
4450;SDS011;2238;50.180;9.230;2022-07-06T01:00:52;5.10;;;3.93;;
4450;SDS011;2238;50.180;9.230;2022-07-06T01:03:53;4.73;;;4.03;;
4450;SDS011;2238;50.180;9.230;2022-07-06T01:06:54;3.77;;;3.57;;
4450;SDS011;2238;50.180;9.230;2022-07-06T01:09:56;3.90;;;3.60;;
4450;SDS011;2238;50.180;9.230;2022-07-06T01:12:57;3.40;;;3.20;;
4450;SDS011;2238;50.180;9.230;2022-07-06T01:15:57;4.53;;;4.23;;
4450;SDS011;2238;50.180;9.230;2022-07-06T01:18:58;4.27;;;3.87;;
4450;SDS011;2238;50.180;9.230;2022-07-06T01:21:59;3.80;;;3.50;;
4450;SDS011;2238;50.180;9.230;2022-07-06T01:24:59;5.93;;;3.83;;
4450;SDS011;2238;50.180;9.230;2022-07-06T01:28:00;4.10;;;3.70;;
4450;SDS011;2238;50.180;9.230;2022-07-06T01:31:01;4.33;;;4.03;;
4450;SDS011;2238;50.180;9.230;2022-07-06T01:34:01;3.67;;;3.37;;
4450;SDS011;2238;50.180;9.230;2022-07-06T01:37:02;3.97;;;3.67;;
4450;SDS011;2238;50.180;9.230;2022-07-06T01:40:04;4.80;;;3.83;;
4450;SDS011;2238;50.180;9.230;2022-07-06T01:43:06;9.70;;;3.73;;
4450;SDS011;2238;50.180;9.230;2022-07-06T01:46:07;3.83;;;3.63;;
4450;SDS011;2238;50.180;9.230;2022-07-06T01:49:07;3.80;;;3.60;;
4450;SDS011;2238;50.180;9.230;2022-07-06T01:52:08;5.60;;;3.97;;
4450;SDS011;2238;50.180;9.230;2022-07-06T01:55:09;3.63;;;3.43;;
4450;SDS011;2238;50.180;9.230;2022-07-06T01:58:09;3.83;;;3.53;;
4450;SDS011;2238;50.180;9.230;2022-07-06T02:01:11;4.33;;;3.93;;
4450;SDS011;2238;50.180;9.230;2022-07-06T02:04:13;4.27;;;3.97;;
4450;SDS011;2238;50.180;9.230;2022-07-06T02:07:14;7.50;;;4.20;;
4450;SDS011;2238;50.180;9.230;2022-07-06T02:10:14;4.37;;;4.07;;
4450;SDS011;2238;50.180;9.230;2022-07-06T02:13:15;4.27;;;3.97;;
4450;SDS011;2238;50.180;9.230;2022-07-06T02:16:15;4.80;;;4.40;;
4450;SDS011;2238;50.180;9.230;2022-07-06T02:19:16;4.30;;;4.00;;
4450;SDS011;2238;50.180;9.230;2022-07-06T02:22:16;6.20;;;4.50;;
4450;SDS011;2238;50.180;9.230;2022-07-06T02:25:17;4.80;;;4.47;;
4450;SDS011;2238;50.180;9.230;2022-07-06T02:28:18;4.13;;;3.83;;
4450;SDS011;2238;50.180;9.230;2022-07-06T02:31:18;6.07;;;4.67;;
4450;SDS011;2238;50.180;9.230;2022-07-06T02:34:19;4.90;;;4.50;;
4450;SDS011;2238;50.180;9.230;2022-07-06T02:37:19;4.83;;;4.43;;
4450;SDS011;2238;50.180;9.230;2022-07-06T02:40:20;3.90;;;3.70;;
4450;SDS011;2238;50.180;9.230;2022-07-06T02:43:20;4.10;;;3.90;;
4450;SDS011;2238;50.180;9.230;2022-07-06T02:46:21;4.30;;;4.07;;
4450;SDS011;2238;50.180;9.230;2022-07-06T02:49:22;4.43;;;4.10;;
4450;SDS011;2238;50.180;9.230;2022-07-06T02:52:22;5.27;;;4.87;;
4450;SDS011;2238;50.180;9.230;2022-07-06T02:55:23;4.30;;;3.80;;
4450;SDS011;2238;50.180;9.230;2022-07-06T02:58:24;4.83;;;4.43;;
4450;SDS011;2238;50.180;9.230;2022-07-06T03:01:25;4.43;;;4.03;;
4450;SDS011;2238;50.180;9.230;2022-07-06T03:04:25;4.50;;;4.10;;
4450;SDS011;2238;50.180;9.230;2022-07-06T03:07:26;4.57;;;4.27;;
4450;SDS011;2238;50.180;9.230;2022-07-06T03:10:27;5.40;;;4.70;;
4450;SDS011;2238;50.180;9.230;2022-07-06T03:13:28;5.90;;;4.60;;
4450;SDS011;2238;50.180;9.230;2022-07-06T03:16:28;5.30;;;4.80;;
4450;SDS011;2238;50.180;9.230;2022-07-06T03:19:29;5.30;;;5.00;;
4450;SDS011;2238;50.180;9.230;2022-07-06T03:22:30;4.90;;;4.50;;
4450;SDS011;2238;50.180;9.230;2022-07-06T03:25:31;5.30;;;4.80;;
4450;SDS011;2238;50.180;9.230;2022-07-06T03:28:32;5.33;;;4.90;;
4450;SDS011;2238;50.180;9.230;2022-07-06T03:31:33;5.27;;;4.87;;
4450;SDS011;2238;50.180;9.230;2022-07-06T03:34:35;5.57;;;5.07;;
4450;SDS011;2238;50.180;9.230;2022-07-06T03:37:35;5.37;;;5.07;;
4450;SDS011;2238;50.180;9.230;2022-07-06T03:40:36;6.50;;;5.13;;
4450;SDS011;2238;50.180;9.230;2022-07-06T03:43:37;5.20;;;4.80;;
4450;SDS011;2238;50.180;9.230;2022-07-06T03:46:37;5.23;;;4.80;;
4450;SDS011;2238;50.180;9.230;2022-07-06T03:49:38;5.10;;;4.70;;
4450;SDS011;2238;50.180;9.230;2022-07-06T03:52:38;5.33;;;4.77;;
4450;SDS011;2238;50.180;9.230;2022-07-06T03:55:39;4.93;;;4.53;;
4450;SDS011;2238;50.180;9.230;2022-07-06T03:58:40;4.47;;;4.07;;
4450;SDS011;2238;50.180;9.230;2022-07-06T04:01:40;4.63;;;4.23;;
4450;SDS011;2238;50.180;9.230;2022-07-06T04:04:41;4.50;;;4.20;;
4450;SDS011;2238;50.180;9.230;2022-07-06T04:07:42;4.27;;;3.97;;
4450;SDS011;2238;50.180;9.230;2022-07-06T04:10:43;4.60;;;4.20;;
4450;SDS011;2238;50.180;9.230;2022-07-06T04:13:43;5.67;;;5.27;;
4450;SDS011;2238;50.180;9.230;2022-07-06T04:16:44;5.63;;;5.13;;
4450;SDS011;2238;50.180;9.230;2022-07-06T04:19:44;5.83;;;5.43;;
4450;SDS011;2238;50.180;9.230;2022-07-06T04:22:45;4.67;;;4.30;;
4450;SDS011;2238;50.180;9.230;2022-07-06T04:25:46;4.90;;;4.50;;
4450;SDS011;2238;50.180;9.230;2022-07-06T04:28:46;9.77;;;4.73;;
4450;SDS011;2238;50.180;9.230;2022-07-06T04:31:47;4.93;;;4.27;;
4450;SDS011;2238;50.180;9.230;2022-07-06T04:34:47;4.90;;;4.50;;
4450;SDS011;2238;50.180;9.230;2022-07-06T04:37:48;4.53;;;4.23;;
4450;SDS011;2238;50.180;9.230;2022-07-06T04:40:49;4.53;;;4.13;;
4450;SDS011;2238;50.180;9.230;2022-07-06T04:43:49;4.70;;;4.40;;
4450;SDS011;2238;50.180;9.230;2022-07-06T04:46:50;4.90;;;4.50;;
4450;SDS011;2238;50.180;9.230;2022-07-06T04:49:51;5.70;;;5.10;;
4450;SDS011;2238;50.180;9.230;2022-07-06T04:52:51;5.00;;;4.50;;
4450;SDS011;2238;50.180;9.230;2022-07-06T04:55:52;4.63;;;4.20;;
4450;SDS011;2238;50.180;9.230;2022-07-06T04:58:52;5.27;;;4.87;;
4450;SDS011;2238;50.180;9.230;2022-07-06T05:01:54;4.90;;;4.47;;
4450;SDS011;2238;50.180;9.230;2022-07-06T05:04:54;5.67;;;5.10;;
4450;SDS011;2238;50.180;9.230;2022-07-06T05:07:55;5.40;;;4.90;;
4450;SDS011;2238;50.180;9.230;2022-07-06T05:10:55;5.43;;;5.03;;
4450;SDS011;2238;50.180;9.230;2022-07-06T05:13:56;6.80;;;5.20;;
4450;SDS011;2238;50.180;9.230;2022-07-06T05:16:57;4.90;;;4.50;;
4450;SDS011;2238;50.180;9.230;2022-07-06T05:19:57;5.23;;;4.70;;
4450;SDS011;2238;50.180;9.230;2022-07-06T05:22:58;6.03;;;5.20;;
4450;SDS011;2238;50.180;9.230;2022-07-06T05:25:59;5.90;;;5.30;;
4450;SDS011;2238;50.180;9.230;2022-07-06T05:28:59;4.63;;;4.33;;
4450;SDS011;2238;50.180;9.230;2022-07-06T05:32:00;5.20;;;4.90;;
4450;SDS011;2238;50.180;9.230;2022-07-06T05:35:00;5.30;;;4.90;;
4450;SDS011;2238;50.180;9.230;2022-07-06T05:38:01;6.30;;;5.10;;
4450;SDS011;2238;50.180;9.230;2022-07-06T05:41:02;5.47;;;4.93;;
4450;SDS011;2238;50.180;9.230;2022-07-06T05:44:02;5.90;;;5.50;;
4450;SDS011;2238;50.180;9.230;2022-07-06T05:47:03;5.37;;;4.87;;
4450;SDS011;2238;50.180;9.230;2022-07-06T05:50:22;7.07;;;5.00;;
4450;SDS011;2238;50.180;9.230;2022-07-06T05:53:23;6.80;;;4.73;;
4450;SDS011;2238;50.180;9.230;2022-07-06T05:56:23;5.10;;;4.70;;
4450;SDS011;2238;50.180;9.230;2022-07-06T05:59:24;6.80;;;4.60;;
4450;SDS011;2238;50.180;9.230;2022-07-06T06:02:24;5.43;;;5.03;;
4450;SDS011;2238;50.180;9.230;2022-07-06T06:05:25;5.37;;;4.87;;
4450;SDS011;2238;50.180;9.230;2022-07-06T06:08:26;4.67;;;4.27;;
4450;SDS011;2238;50.180;9.230;2022-07-06T06:11:26;6.13;;;4.60;;
4450;SDS011;2238;50.180;9.230;2022-07-06T06:14:27;4.90;;;4.40;;
4450;SDS011;2238;50.180;9.230;2022-07-06T06:17:28;4.70;;;4.27;;
4450;SDS011;2238;50.180;9.230;2022-07-06T06:20:28;3.90;;;3.43;;
4450;SDS011;2238;50.180;9.230;2022-07-06T06:23:29;5.20;;;3.90;;
4450;SDS011;2238;50.180;9.230;2022-07-06T06:26:31;5.30;;;3.87;;
4450;SDS011;2238;50.180;9.230;2022-07-06T06:29:32;4.40;;;3.63;;
4450;SDS011;2238;50.180;9.230;2022-07-06T06:32:33;4.23;;;3.70;;
4450;SDS011;2238;50.180;9.230;2022-07-06T06:35:33;3.83;;;3.53;;
4450;SDS011;2238;50.180;9.230;2022-07-06T06:38:34;4.40;;;4.00;;
4450;SDS011;2238;50.180;9.230;2022-07-06T06:41:35;5.40;;;4.07;;
4450;SDS011;2238;50.180;9.230;2022-07-06T06:44:35;4.47;;;3.97;;
4450;SDS011;2238;50.180;9.230;2022-07-06T06:47:36;8.13;;;4.23;;
4450;SDS011;2238;50.180;9.230;2022-07-06T06:50:37;5.40;;;4.07;;
4450;SDS011;2238;50.180;9.230;2022-07-06T06:53:37;3.43;;;3.23;;
4450;SDS011;2238;50.180;9.230;2022-07-06T06:56:38;8.43;;;3.93;;
4450;SDS011;2238;50.180;9.230;2022-07-06T06:59:38;3.80;;;3.50;;
4450;SDS011;2238;50.180;9.230;2022-07-06T07:02:39;5.23;;;3.93;;
4450;SDS011;2238;50.180;9.230;2022-07-06T07:05:40;4.50;;;3.57;;
4450;SDS011;2238;50.180;9.230;2022-07-06T07:08:41;8.37;;;3.97;;
4450;SDS011;2238;50.180;9.230;2022-07-06T07:11:41;5.97;;;4.40;;
4450;SDS011;2238;50.180;9.230;2022-07-06T07:14:42;7.73;;;3.73;;
4450;SDS011;2238;50.180;9.230;2022-07-06T07:17:44;4.23;;;3.93;;
4450;SDS011;2238;50.180;9.230;2022-07-06T07:20:44;4.20;;;3.83;;
4450;SDS011;2238;50.180;9.230;2022-07-06T07:23:45;4.67;;;3.53;;
4450;SDS011;2238;50.180;9.230;2022-07-06T07:26:46;3.90;;;3.50;;
4450;SDS011;2238;50.180;9.230;2022-07-06T07:29:47;4.50;;;3.63;;
4450;SDS011;2238;50.180;9.230;2022-07-06T07:32:47;4.10;;;3.70;;
4450;SDS011;2238;50.180;9.230;2022-07-06T07:35:48;4.30;;;3.63;;
4450;SDS011;2238;50.180;9.230;2022-07-06T07:38:48;4.17;;;3.70;;
4450;SDS011;2238;50.180;9.230;2022-07-06T07:41:49;4.07;;;3.57;;
4450;SDS011;2238;50.180;9.230;2022-07-06T07:44:53;4.13;;;3.73;;
4450;SDS011;2238;50.180;9.230;2022-07-06T07:47:54;4.93;;;3.40;;
4450;SDS011;2238;50.180;9.230;2022-07-06T07:50:55;4.30;;;3.50;;
4450;SDS011;2238;50.180;9.230;2022-07-06T07:53:55;4.27;;;3.47;;
4450;SDS011;2238;50.180;9.230;2022-07-06T07:56:56;3.43;;;3.13;;
4450;SDS011;2238;50.180;9.230;2022-07-06T07:59:56;4.53;;;3.57;;
4450;SDS011;2238;50.180;9.230;2022-07-06T08:02:57;4.60;;;4.00;;
4450;SDS011;2238;50.180;9.230;2022-07-06T08:05:58;3.33;;;3.13;;
4450;SDS011;2238;50.180;9.230;2022-07-06T08:08:59;6.20;;;3.60;;
4450;SDS011;2238;50.180;9.230;2022-07-06T08:11:59;3.97;;;3.70;;
4450;SDS011;2238;50.180;9.230;2022-07-06T08:15:00;3.90;;;3.50;;
4450;SDS011;2238;50.180;9.230;2022-07-06T08:18:03;3.77;;;3.43;;
4450;SDS011;2238;50.180;9.230;2022-07-06T08:21:04;3.70;;;3.40;;
4450;SDS011;2238;50.180;9.230;2022-07-06T08:24:05;5.73;;;3.70;;
4450;SDS011;2238;50.180;9.230;2022-07-06T08:27:06;5.53;;;3.40;;
4450;SDS011;2238;50.180;9.230;2022-07-06T08:30:07;4.90;;;3.73;;
4450;SDS011;2238;50.180;9.230;2022-07-06T08:33:08;7.10;;;3.90;;
4450;SDS011;2238;50.180;9.230;2022-07-06T08:36:09;4.23;;;3.53;;
4450;SDS011;2238;50.180;9.230;2022-07-06T08:39:09;4.00;;;3.70;;
4450;SDS011;2238;50.180;9.230;2022-07-06T08:42:10;9.13;;;4.07;;
4450;SDS011;2238;50.180;9.230;2022-07-06T08:45:15;3.47;;;3.23;;
4450;SDS011;2238;50.180;9.230;2022-07-06T08:48:17;4.83;;;4.40;;
4450;SDS011;2238;50.180;9.230;2022-07-06T08:51:20;4.40;;;3.90;;
4450;SDS011;2238;50.180;9.230;2022-07-06T08:54:25;4.83;;;4.40;;
4450;SDS011;2238;50.180;9.230;2022-07-06T08:57:27;6.90;;;4.50;;
4450;SDS011;2238;50.180;9.230;2022-07-06T09:00:28;5.30;;;4.70;;
4450;SDS011;2238;50.180;9.230;2022-07-06T09:03:29;5.47;;;5.03;;
4450;SDS011;2238;50.180;9.230;2022-07-06T09:06:32;5.70;;;5.10;;
4450;SDS011;2238;50.180;9.230;2022-07-06T09:09:34;6.00;;;5.60;;
4450;SDS011;2238;50.180;9.230;2022-07-06T09:12:37;8.67;;;4.90;;
4450;SDS011;2238;50.180;9.230;2022-07-06T09:15:37;5.40;;;4.90;;
4450;SDS011;2238;50.180;9.230;2022-07-06T09:18:39;6.67;;;5.30;;
4450;SDS011;2238;50.180;9.230;2022-07-06T09:21:42;5.60;;;5.10;;
4450;SDS011;2238;50.180;9.230;2022-07-06T09:24:44;5.83;;;5.37;;
4450;SDS011;2238;50.180;9.230;2022-07-06T09:27:45;5.40;;;4.97;;
4450;SDS011;2238;50.180;9.230;2022-07-06T09:30:47;5.07;;;4.30;;
4450;SDS011;2238;50.180;9.230;2022-07-06T09:37:05;5.40;;;4.43;;
4450;SDS011;2238;50.180;9.230;2022-07-06T09:40:15;4.80;;;4.20;;
4450;SDS011;2238;50.180;9.230;2022-07-06T09:43:18;4.17;;;3.87;;
4450;SDS011;2238;50.180;9.230;2022-07-06T09:46:24;5.17;;;4.77;;
4450;SDS011;2238;50.180;9.230;2022-07-06T09:49:25;4.77;;;4.33;;
4450;SDS011;2238;50.180;9.230;2022-07-06T09:52:26;10.00;;;4.80;;
4450;SDS011;2238;50.180;9.230;2022-07-06T09:55:27;4.50;;;4.13;;
4450;SDS011;2238;50.180;9.230;2022-07-06T09:58:28;4.93;;;4.27;;
4450;SDS011;2238;50.180;9.230;2022-07-06T10:01:28;5.60;;;4.37;;
4450;SDS011;2238;50.180;9.230;2022-07-06T10:04:30;5.57;;;3.90;;
4450;SDS011;2238;50.180;9.230;2022-07-06T10:07:31;5.70;;;4.23;;
4450;SDS011;2238;50.180;9.230;2022-07-06T10:10:32;5.03;;;4.60;;
4450;SDS011;2238;50.180;9.230;2022-07-06T10:13:32;7.53;;;4.70;;
4450;SDS011;2238;50.180;9.230;2022-07-06T10:35:00;3.73;;;3.37;;
4450;SDS011;2238;50.180;9.230;2022-07-06T10:38:07;7.50;;;3.20;;
4450;SDS011;2238;50.180;9.230;2022-07-06T10:41:09;3.40;;;3.20;;
4450;SDS011;2238;50.180;9.230;2022-07-06T10:44:16;4.90;;;3.43;;
4450;SDS011;2238;50.180;9.230;2022-07-06T10:47:17;4.90;;;3.70;;
4450;SDS011;2238;50.180;9.230;2022-07-06T10:50:33;3.40;;;3.20;;
4450;SDS011;2238;50.180;9.230;2022-07-06T10:53:35;5.07;;;4.57;;
4450;SDS011;2238;50.180;9.230;2022-07-06T10:56:39;4.60;;;4.30;;
4450;SDS011;2238;50.180;9.230;2022-07-06T11:00:01;4.93;;;4.53;;
4450;SDS011;2238;50.180;9.230;2022-07-06T11:03:29;3.63;;;3.37;;
4450;SDS011;2238;50.180;9.230;2022-07-06T11:06:39;4.70;;;3.63;;
4450;SDS011;2238;50.180;9.230;2022-07-06T11:09:40;3.60;;;3.30;;
4450;SDS011;2238;50.180;9.230;2022-07-06T11:12:47;3.93;;;3.63;;
4450;SDS011;2238;50.180;9.230;2022-07-06T11:16:02;9.33;;;3.80;;
4450;SDS011;2238;50.180;9.230;2022-07-06T11:25:08;3.97;;;3.60;;
4450;SDS011;2238;50.180;9.230;2022-07-06T11:28:08;3.63;;;3.33;;
4450;SDS011;2238;50.180;9.230;2022-07-06T11:31:14;4.87;;;3.60;;
4450;SDS011;2238;50.180;9.230;2022-07-06T11:34:25;4.10;;;3.80;;
4450;SDS011;2238;50.180;9.230;2022-07-06T11:37:27;6.17;;;3.40;;
4450;SDS011;2238;50.180;9.230;2022-07-06T11:40:28;4.47;;;3.87;;
4450;SDS011;2238;50.180;9.230;2022-07-06T11:43:29;7.73;;;4.30;;
4450;SDS011;2238;50.180;9.230;2022-07-06T11:46:31;3.80;;;3.50;;
4450;SDS011;2238;50.180;9.230;2022-07-06T11:49:34;4.13;;;3.73;;
4450;SDS011;2238;50.180;9.230;2022-07-06T11:52:35;4.60;;;4.20;;
4450;SDS011;2238;50.180;9.230;2022-07-06T11:55:36;9.43;;;4.00;;
4450;SDS011;2238;50.180;9.230;2022-07-06T11:58:36;3.97;;;3.73;;
4450;SDS011;2238;50.180;9.230;2022-07-06T12:01:39;3.80;;;3.50;;
4450;SDS011;2238;50.180;9.230;2022-07-06T12:04:44;4.40;;;4.10;;
4450;SDS011;2238;50.180;9.230;2022-07-06T12:07:45;3.40;;;3.10;;
4450;SDS011;2238;50.180;9.230;2022-07-06T12:10:46;3.90;;;3.60;;
4450;SDS011;2238;50.180;9.230;2022-07-06T12:13:47;3.67;;;3.27;;
4450;SDS011;2238;50.180;9.230;2022-07-06T12:16:49;4.20;;;3.77;;
4450;SDS011;2238;50.180;9.230;2022-07-06T12:19:53;3.87;;;3.57;;
4450;SDS011;2238;50.180;9.230;2022-07-06T12:23:04;4.37;;;3.40;;
4450;SDS011;2238;50.180;9.230;2022-07-06T12:26:06;3.37;;;3.17;;
4450;SDS011;2238;50.180;9.230;2022-07-06T12:29:08;4.03;;;3.07;;
4450;SDS011;2238;50.180;9.230;2022-07-06T12:32:17;2.87;;;2.67;;
4450;SDS011;2238;50.180;9.230;2022-07-06T12:35:26;7.33;;;3.37;;
4450;SDS011;2238;50.180;9.230;2022-07-06T12:38:27;4.60;;;2.97;;
4450;SDS011;2238;50.180;9.230;2022-07-06T12:41:31;3.40;;;3.20;;
4450;SDS011;2238;50.180;9.230;2022-07-06T12:44:33;3.23;;;2.97;;
4450;SDS011;2238;50.180;9.230;2022-07-06T12:47:56;3.40;;;3.10;;
4450;SDS011;2238;50.180;9.230;2022-07-06T12:51:01;4.53;;;3.20;;
4450;SDS011;2238;50.180;9.230;2022-07-06T12:54:12;2.90;;;2.70;;
4450;SDS011;2238;50.180;9.230;2022-07-06T13:00:18;3.60;;;2.70;;
4450;SDS011;2238;50.180;9.230;2022-07-06T13:03:21;3.80;;;3.40;;
4450;SDS011;2238;50.180;9.230;2022-07-06T13:06:32;3.33;;;3.03;;
4450;SDS011;2238;50.180;9.230;2022-07-06T13:09:34;3.40;;;2.53;;
4450;SDS011;2238;50.180;9.230;2022-07-06T13:12:35;3.07;;;2.87;;
4450;SDS011;2238;50.180;9.230;2022-07-06T13:15:36;2.80;;;2.60;;
4450;SDS011;2238;50.180;9.230;2022-07-06T13:18:36;3.13;;;2.60;;
4450;SDS011;2238;50.180;9.230;2022-07-06T13:21:38;2.57;;;2.37;;
4450;SDS011;2238;50.180;9.230;2022-07-06T13:24:40;2.67;;;2.47;;
4450;SDS011;2238;50.180;9.230;2022-07-06T13:27:40;2.80;;;2.40;;
4450;SDS011;2238;50.180;9.230;2022-07-06T13:30:41;2.80;;;2.60;;
4450;SDS011;2238;50.180;9.230;2022-07-06T13:33:42;2.30;;;2.20;;
4450;SDS011;2238;50.180;9.230;2022-07-06T13:36:43;8.63;;;2.40;;
4450;SDS011;2238;50.180;9.230;2022-07-06T13:39:43;2.50;;;2.30;;
4450;SDS011;2238;50.180;9.230;2022-07-06T13:42:44;3.60;;;2.03;;
4450;SDS011;2238;50.180;9.230;2022-07-06T13:45:46;5.20;;;2.23;;
4450;SDS011;2238;50.180;9.230;2022-07-06T13:48:47;2.27;;;2.17;;
4450;SDS011;2238;50.180;9.230;2022-07-06T13:51:47;2.57;;;2.37;;
4450;SDS011;2238;50.180;9.230;2022-07-06T13:54:48;4.17;;;2.80;;
4450;SDS011;2238;50.180;9.230;2022-07-06T13:57:49;2.60;;;2.33;;
4450;SDS011;2238;50.180;9.230;2022-07-06T14:00:49;3.37;;;2.80;;
4450;SDS011;2238;50.180;9.230;2022-07-06T14:03:50;3.60;;;2.60;;
4450;SDS011;2238;50.180;9.230;2022-07-06T14:06:51;6.80;;;2.47;;
4450;SDS011;2238;50.180;9.230;2022-07-06T14:09:52;2.57;;;2.10;;
4450;SDS011;2238;50.180;9.230;2022-07-06T14:12:52;2.53;;;2.33;;
4450;SDS011;2238;50.180;9.230;2022-07-06T14:15:53;2.60;;;2.40;;
4450;SDS011;2238;50.180;9.230;2022-07-06T14:18:54;2.10;;;2.00;;
4450;SDS011;2238;50.180;9.230;2022-07-06T14:21:54;2.20;;;2.00;;
4450;SDS011;2238;50.180;9.230;2022-07-06T14:24:55;2.60;;;2.40;;
4450;SDS011;2238;50.180;9.230;2022-07-06T14:27:57;4.13;;;2.80;;
4450;SDS011;2238;50.180;9.230;2022-07-06T14:30:58;2.77;;;2.30;;
4450;SDS011;2238;50.180;9.230;2022-07-06T14:34:01;2.50;;;2.30;;
4450;SDS011;2238;50.180;9.230;2022-07-06T14:37:02;3.53;;;2.33;;
4450;SDS011;2238;50.180;9.230;2022-07-06T14:40:02;4.20;;;2.40;;
4450;SDS011;2238;50.180;9.230;2022-07-06T14:43:04;2.77;;;2.53;;
4450;SDS011;2238;50.180;9.230;2022-07-06T14:46:05;4.53;;;2.20;;
4450;SDS011;2238;50.180;9.230;2022-07-06T14:49:07;2.70;;;2.47;;
4450;SDS011;2238;50.180;9.230;2022-07-06T14:52:07;2.43;;;2.23;;
4450;SDS011;2238;50.180;9.230;2022-07-06T14:55:10;2.17;;;2.03;;
4450;SDS011;2238;50.180;9.230;2022-07-06T14:58:10;2.87;;;2.10;;
4450;SDS011;2238;50.180;9.230;2022-07-06T15:01:11;2.63;;;2.43;;
4450;SDS011;2238;50.180;9.230;2022-07-06T15:04:11;2.10;;;2.00;;
4450;SDS011;2238;50.180;9.230;2022-07-06T15:07:13;3.00;;;2.50;;
4450;SDS011;2238;50.180;9.230;2022-07-06T15:10:14;4.17;;;2.37;;
4450;SDS011;2238;50.180;9.230;2022-07-06T15:13:15;3.63;;;2.00;;
4450;SDS011;2238;50.180;9.230;2022-07-06T15:16:16;2.80;;;2.33;;
4450;SDS011;2238;50.180;9.230;2022-07-06T15:19:16;2.20;;;2.10;;
4450;SDS011;2238;50.180;9.230;2022-07-06T15:22:17;2.37;;;2.17;;
4450;SDS011;2238;50.180;9.230;2022-07-06T15:25:18;2.80;;;2.20;;
4450;SDS011;2238;50.180;9.230;2022-07-06T15:28:19;2.60;;;2.20;;
4450;SDS011;2238;50.180;9.230;2022-07-06T15:31:20;2.43;;;2.20;;
4450;SDS011;2238;50.180;9.230;2022-07-06T15:34:20;4.90;;;4.53;;
4450;SDS011;2238;50.180;9.230;2022-07-06T15:37:21;3.33;;;2.43;;
4450;SDS011;2238;50.180;9.230;2022-07-06T15:40:22;2.20;;;2.10;;
4450;SDS011;2238;50.180;9.230;2022-07-06T15:43:25;2.50;;;2.33;;
4450;SDS011;2238;50.180;9.230;2022-07-06T15:46:26;2.80;;;2.60;;
4450;SDS011;2238;50.180;9.230;2022-07-06T15:49:27;4.53;;;2.50;;
4450;SDS011;2238;50.180;9.230;2022-07-06T15:52:27;3.00;;;2.70;;
4450;SDS011;2238;50.180;9.230;2022-07-06T15:55:28;3.30;;;2.40;;
4450;SDS011;2238;50.180;9.230;2022-07-06T15:58:29;3.13;;;2.93;;
4450;SDS011;2238;50.180;9.230;2022-07-06T16:01:29;4.60;;;3.30;;
4450;SDS011;2238;50.180;9.230;2022-07-06T16:04:30;2.77;;;2.57;;
4450;SDS011;2238;50.180;9.230;2022-07-06T16:07:31;3.03;;;2.70;;
4450;SDS011;2238;50.180;9.230;2022-07-06T16:10:31;2.73;;;2.53;;
4450;SDS011;2238;50.180;9.230;2022-07-06T16:13:32;3.63;;;2.77;;
4450;SDS011;2238;50.180;9.230;2022-07-06T16:16:33;4.43;;;2.47;;
4450;SDS011;2238;50.180;9.230;2022-07-06T16:19:33;2.43;;;2.23;;
4450;SDS011;2238;50.180;9.230;2022-07-06T16:22:34;8.67;;;2.67;;
4450;SDS011;2238;50.180;9.230;2022-07-06T16:25:35;2.73;;;2.63;;
4450;SDS011;2238;50.180;9.230;2022-07-06T16:28:35;4.67;;;3.00;;
4450;SDS011;2238;50.180;9.230;2022-07-06T16:31:36;3.30;;;3.00;;
4450;SDS011;2238;50.180;9.230;2022-07-06T16:34:37;3.60;;;3.30;;
4450;SDS011;2238;50.180;9.230;2022-07-06T16:37:37;3.40;;;3.13;;
4450;SDS011;2238;50.180;9.230;2022-07-06T16:40:38;3.07;;;2.83;;
4450;SDS011;2238;50.180;9.230;2022-07-06T16:43:38;3.03;;;2.83;;
4450;SDS011;2238;50.180;9.230;2022-07-06T16:46:39;3.50;;;3.20;;
4450;SDS011;2238;50.180;9.230;2022-07-06T16:49:40;3.20;;;2.90;;
4450;SDS011;2238;50.180;9.230;2022-07-06T16:52:40;5.10;;;3.20;;
4450;SDS011;2238;50.180;9.230;2022-07-06T16:55:41;5.47;;;3.43;;
4450;SDS011;2238;50.180;9.230;2022-07-06T16:58:41;3.63;;;3.33;;
4450;SDS011;2238;50.180;9.230;2022-07-06T17:01:42;4.20;;;3.37;;
4450;SDS011;2238;50.180;9.230;2022-07-06T17:04:43;3.50;;;3.30;;
4450;SDS011;2238;50.180;9.230;2022-07-06T17:07:44;3.97;;;3.57;;
4450;SDS011;2238;50.180;9.230;2022-07-06T17:10:44;3.80;;;3.60;;
4450;SDS011;2238;50.180;9.230;2022-07-06T17:13:45;3.73;;;3.40;;
4450;SDS011;2238;50.180;9.230;2022-07-06T17:16:46;4.00;;;3.80;;
4450;SDS011;2238;50.180;9.230;2022-07-06T17:19:47;4.13;;;3.53;;
4450;SDS011;2238;50.180;9.230;2022-07-06T17:22:48;2.83;;;2.63;;
4450;SDS011;2238;50.180;9.230;2022-07-06T17:25:49;6.60;;;3.60;;
4450;SDS011;2238;50.180;9.230;2022-07-06T17:28:49;3.97;;;3.30;;
4450;SDS011;2238;50.180;9.230;2022-07-06T17:31:51;3.57;;;3.37;;
4450;SDS011;2238;50.180;9.230;2022-07-06T17:34:52;5.80;;;3.97;;
4450;SDS011;2238;50.180;9.230;2022-07-06T17:37:52;5.27;;;3.57;;
4450;SDS011;2238;50.180;9.230;2022-07-06T17:40:53;4.00;;;3.60;;
4450;SDS011;2238;50.180;9.230;2022-07-06T17:43:53;4.00;;;3.60;;
4450;SDS011;2238;50.180;9.230;2022-07-06T17:46:54;4.10;;;3.70;;
4450;SDS011;2238;50.180;9.230;2022-07-06T17:49:54;6.80;;;3.20;;
4450;SDS011;2238;50.180;9.230;2022-07-06T17:52:55;5.73;;;3.60;;
4450;SDS011;2238;50.180;9.230;2022-07-06T17:55:56;3.60;;;3.30;;
4450;SDS011;2238;50.180;9.230;2022-07-06T17:58:56;3.40;;;3.20;;
4450;SDS011;2238;50.180;9.230;2022-07-06T18:01:58;3.23;;;3.03;;
4450;SDS011;2238;50.180;9.230;2022-07-06T18:04:59;4.40;;;3.33;;
4450;SDS011;2238;50.180;9.230;2022-07-06T18:07:59;4.30;;;3.90;;
4450;SDS011;2238;50.180;9.230;2022-07-06T18:11:01;3.90;;;3.60;;
4450;SDS011;2238;50.180;9.230;2022-07-06T18:14:01;4.33;;;4.00;;
4450;SDS011;2238;50.180;9.230;2022-07-06T18:17:02;3.40;;;3.17;;
4450;SDS011;2238;50.180;9.230;2022-07-06T18:20:03;3.67;;;3.33;;
4450;SDS011;2238;50.180;9.230;2022-07-06T18:23:04;5.67;;;3.50;;
4450;SDS011;2238;50.180;9.230;2022-07-06T18:26:05;4.00;;;2.87;;
4450;SDS011;2238;50.180;9.230;2022-07-06T18:29:06;3.50;;;3.30;;
4450;SDS011;2238;50.180;9.230;2022-07-06T18:32:09;3.90;;;3.47;;
4450;SDS011;2238;50.180;9.230;2022-07-06T18:35:09;4.80;;;3.43;;
4450;SDS011;2238;50.180;9.230;2022-07-06T18:38:10;3.87;;;3.03;;
4450;SDS011;2238;50.180;9.230;2022-07-06T18:41:11;3.50;;;3.20;;
4450;SDS011;2238;50.180;9.230;2022-07-06T18:44:12;3.43;;;3.23;;
4450;SDS011;2238;50.180;9.230;2022-07-06T18:47:12;3.37;;;3.17;;
4450;SDS011;2238;50.180;9.230;2022-07-06T18:50:14;3.40;;;3.10;;
4450;SDS011;2238;50.180;9.230;2022-07-06T18:53:16;3.63;;;3.33;;
4450;SDS011;2238;50.180;9.230;2022-07-06T18:56:18;3.70;;;3.40;;
4450;SDS011;2238;50.180;9.230;2022-07-06T18:59:19;3.93;;;2.90;;
4450;SDS011;2238;50.180;9.230;2022-07-06T19:02:20;3.67;;;3.37;;
4450;SDS011;2238;50.180;9.230;2022-07-06T19:05:20;3.80;;;3.40;;
4450;SDS011;2238;50.180;9.230;2022-07-06T19:08:21;3.57;;;3.27;;
4450;SDS011;2238;50.180;9.230;2022-07-06T19:11:21;3.67;;;3.47;;
4450;SDS011;2238;50.180;9.230;2022-07-06T19:14:22;3.60;;;3.40;;
4450;SDS011;2238;50.180;9.230;2022-07-06T19:17:23;4.50;;;3.80;;